Hauptseite
METAR-TAF:

METAR-TAF

Flughäfen :

Deering, Alaska, Vereinigte Staaten

Breite: 66-05N, Länge: 162-45W, Höhe: 5 m

Beobachtung

Neuester Wetterbericht von vor 32 Minuten, um 13:53 UTC
Windstille
Temperatur 12°C
Luftfeuchtigkeit 100%
Luftdruck 1020 hPa
Sichtweite: 0.4 km
Nebel

METAR: PADE 231353Z AUTO 00000KT 1/4SM FG VV002 12/12 A3011 RMK AO2 SLP196 T01220122 TSNO $

Zeit: 06:25 (14:25 UTC)


TAF: fehlend

Wetterbeobachtungen und Prognosen von mehr als 4000 Flughäfen (METAR und TAF Bericht).

Die verfügbaren Stationen werden durch gelbe und rote Markierungen auf der Karte dargestellt.

Führen Sie die Maus auf sie, um den Namen der Station zu sehen.

Darauf klicken, um die Beobachtung von Wetterbeobachtungen und Prognosen zu sehen.

Um die Karte zu ändern : klicken Sie auf den grünen Tasten mit einem schwarzen Kreuz Zum Vergrößern, auf den grünen Button mit einem Gedankenstrich zu verkleinern, oder auf die grünen Pfeile für benachbarte Karten.


METAR-TAF: